createdAt,value
2022-12-13T00:00:10.000Z,5.10
2022-12-13T00:00:41.415Z,4.89
2022-12-13T00:01:12.809Z,4.88
2022-12-13T00:01:44.289Z,4.79
2022-12-13T00:02:15.719Z,5.10
2022-12-13T00:02:47.113Z,4.75
2022-12-13T00:03:18.587Z,4.79
2022-12-13T00:03:50.054Z,5.02
2022-12-13T00:04:21.584Z,5.34
2022-12-13T00:04:53.044Z,5.08
2022-12-13T00:05:24.441Z,4.20
2022-12-13T00:05:55.844Z,5.35
2022-12-13T00:06:27.234Z,4.92
2022-12-13T00:06:58.642Z,5.19
2022-12-13T00:07:30.032Z,5.06
2022-12-13T00:08:01.493Z,4.27
2022-12-13T00:08:33.036Z,4.73
2022-12-13T00:09:04.428Z,4.44
2022-12-13T00:09:35.831Z,4.67
2022-12-13T00:10:07.227Z,5.02
2022-12-13T00:10:38.622Z,4.50
2022-12-13T00:11:10.010Z,4.71
2022-12-13T00:11:41.406Z,5.23
2022-12-13T00:12:12.815Z,5.31
2022-12-13T00:12:44.216Z,4.89
2022-12-13T00:13:15.638Z,4.82
2022-12-13T00:13:47.106Z,4.94
2022-12-13T00:14:18.503Z,4.54
2022-12-13T00:14:49.898Z,4.76
2022-12-13T00:15:21.291Z,4.72
2022-12-13T00:15:52.691Z,4.81
2022-12-13T00:16:24.157Z,5.11
2022-12-13T00:16:55.711Z,4.48
2022-12-13T00:17:27.153Z,4.88
2022-12-13T00:17:58.562Z,4.01
2022-12-13T00:18:29.956Z,4.15
2022-12-13T00:19:01.845Z,4.35
2022-12-13T00:19:33.235Z,4.57
2022-12-13T00:20:04.622Z,4.59
2022-12-13T00:20:36.006Z,4.58
2022-12-13T00:21:07.398Z,4.29
2022-12-13T00:21:38.788Z,4.26
2022-12-13T00:22:10.175Z,4.34
2022-12-13T00:22:41.564Z,4.64
2022-12-13T00:23:12.977Z,4.51
2022-12-13T00:23:44.399Z,4.66
2022-12-13T00:24:15.821Z,4.48
2022-12-13T00:24:47.241Z,4.51
2022-12-13T00:25:18.647Z,4.64
2022-12-13T00:25:50.038Z,4.10
2022-12-13T00:26:21.429Z,4.34
2022-12-13T00:26:52.822Z,4.36
2022-12-13T00:27:24.225Z,4.19
2022-12-13T00:27:55.631Z,4.31
2022-12-13T00:28:27.040Z,4.46
2022-12-13T00:28:58.422Z,4.74
2022-12-13T00:29:29.996Z,4.19
2022-12-13T00:30:01.414Z,4.90
2022-12-13T00:30:32.840Z,4.03
2022-12-13T00:31:35.250Z,4.16
2022-12-13T00:32:00.384Z,3.82
2022-12-13T00:32:32.383Z,3.85
2022-12-13T00:33:03.787Z,4.36
2022-12-13T00:33:35.176Z,4.18
2022-12-13T00:34:06.568Z,3.98
2022-12-13T00:34:38.013Z,4.52
2022-12-13T00:35:09.422Z,4.41
2022-12-13T00:35:40.831Z,4.79
2022-12-13T00:36:12.242Z,3.68
2022-12-13T00:36:43.629Z,3.47
2022-12-13T00:37:15.036Z,4.02
2022-12-13T00:37:46.424Z,3.96
2022-12-13T00:38:17.831Z,4.11
2022-12-13T00:38:49.247Z,4.41
2022-12-13T00:39:20.643Z,4.04
2022-12-13T00:39:52.067Z,3.98
2022-12-13T00:40:23.479Z,3.85
2022-12-13T00:40:54.867Z,3.98
2022-12-13T00:41:26.251Z,3.62
2022-12-13T00:41:57.638Z,3.93
2022-12-13T00:42:29.029Z,3.87
2022-12-13T00:43:00.430Z,3.82
2022-12-13T00:43:31.835Z,3.96
2022-12-13T00:44:03.222Z,4.27
2022-12-13T00:44:34.616Z,4.27
2022-12-13T00:45:06.130Z,4.24
2022-12-13T00:45:37.524Z,3.76
2022-12-13T00:46:08.986Z,3.87
2022-12-13T00:46:40.400Z,3.89
2022-12-13T00:47:11.812Z,4.17
2022-12-13T00:47:43.195Z,3.69
2022-12-13T00:48:14.592Z,4.27
2022-12-13T00:48:45.980Z,3.97
2022-12-13T00:49:17.361Z,3.98
2022-12-13T00:49:48.758Z,4.10
2022-12-13T00:50:20.195Z,3.75
2022-12-13T00:50:51.583Z,4.22
2022-12-13T00:51:22.985Z,3.44
2022-12-13T00:51:54.372Z,3.95
2022-12-13T00:52:25.760Z,3.55
2022-12-13T00:52:57.167Z,3.23
2022-12-13T00:53:28.554Z,3.63
2022-12-13T00:53:59.944Z,3.68
2022-12-13T00:54:31.335Z,3.73
2022-12-13T00:55:02.727Z,3.90
2022-12-13T00:55:34.251Z,3.81
2022-12-13T00:56:05.634Z,3.39
2022-12-13T00:56:37.043Z,3.60
2022-12-13T00:57:08.459Z,3.54
2022-12-13T00:57:39.842Z,3.71
2022-12-13T00:58:11.236Z,4.18
2022-12-13T00:58:46.068Z,3.41
2022-12-13T00:59:20.093Z,3.55
2022-12-13T00:59:51.486Z,3.73
2022-12-13T01:00:22.875Z,3.50
2022-12-13T01:00:54.382Z,3.55
2022-12-13T01:01:25.845Z,3.43
2022-12-13T01:01:57.268Z,3.63
2022-12-13T01:02:28.674Z,3.71
2022-12-13T01:03:00.229Z,3.57
2022-12-13T01:03:31.745Z,3.25
2022-12-13T01:04:03.173Z,3.67
2022-12-13T01:04:34.615Z,3.70
2022-12-13T01:05:06.003Z,2.96
2022-12-13T01:06:13.132Z,3.66
2022-12-13T01:06:28.889Z,3.57
2022-12-13T01:07:00.289Z,3.22
2022-12-13T01:07:31.676Z,3.25
2022-12-13T01:08:03.082Z,3.19
2022-12-13T01:08:34.532Z,3.25
2022-12-13T01:09:05.951Z,3.36
2022-12-13T01:09:37.359Z,3.49
2022-12-13T01:10:08.750Z,3.36
2022-12-13T01:10:40.147Z,3.72
2022-12-13T01:11:11.540Z,3.47
2022-12-13T01:11:43.051Z,3.69
2022-12-13T01:12:14.455Z,3.43
2022-12-13T01:12:45.856Z,3.28
2022-12-13T01:13:17.264Z,3.29
2022-12-13T01:13:48.662Z,3.58
2022-12-13T01:14:20.060Z,3.89
2022-12-13T01:14:55.957Z,3.71
2022-12-13T01:15:27.631Z,3.71
2022-12-13T01:15:59.020Z,3.85
2022-12-13T01:16:30.492Z,3.86
2022-12-13T01:17:02.086Z,3.70
2022-12-13T01:17:33.534Z,3.13
2022-12-13T01:18:04.938Z,3.33
2022-12-13T01:18:36.327Z,3.67
2022-12-13T01:19:07.729Z,3.51
2022-12-13T01:19:39.120Z,3.16
2022-12-13T01:20:10.505Z,3.13
2022-12-13T01:20:41.924Z,2.57
2022-12-13T01:21:13.329Z,2.84
2022-12-13T01:21:44.712Z,3.54
2022-12-13T01:22:16.196Z,3.13
2022-12-13T01:22:47.586Z,3.10
2022-12-13T01:23:18.993Z,2.66
2022-12-13T01:23:50.382Z,3.20
2022-12-13T01:24:21.775Z,2.83
2022-12-13T01:24:53.167Z,2.99
2022-12-13T01:25:24.578Z,2.98
2022-12-13T01:25:55.976Z,2.59
2022-12-13T01:26:27.381Z,3.39
2022-12-13T01:26:58.772Z,3.28
2022-12-13T01:27:30.251Z,3.47
2022-12-13T01:28:01.709Z,2.71
2022-12-13T01:28:33.090Z,2.78
2022-12-13T01:29:04.481Z,3.42
2022-12-13T01:29:35.889Z,2.83
2022-12-13T01:30:07.300Z,3.38
2022-12-13T01:30:38.744Z,3.75
2022-12-13T01:31:10.245Z,3.50
2022-12-13T01:31:41.897Z,3.41
2022-12-13T01:32:13.495Z,2.72
2022-12-13T01:32:45.047Z,2.83
2022-12-13T01:33:16.450Z,3.15
2022-12-13T01:33:47.840Z,3.19
2022-12-13T01:34:19.241Z,3.31
2022-12-13T01:34:50.630Z,3.26
2022-12-13T01:35:22.039Z,3.17
2022-12-13T01:35:53.422Z,3.09
2022-12-13T01:36:27.963Z,2.56
2022-12-13T01:36:59.673Z,2.73
2022-12-13T01:37:31.087Z,2.48
2022-12-13T01:38:16.209Z,3.03
2022-12-13T01:38:47.745Z,2.78
2022-12-13T01:39:19.146Z,2.82
2022-12-13T01:39:50.532Z,3.12
2022-12-13T01:40:21.924Z,3.23
2022-12-13T01:40:58.781Z,2.73
2022-12-13T01:41:30.539Z,2.78
2022-12-13T01:42:01.928Z,2.84
2022-12-13T01:42:33.324Z,2.93
2022-12-13T01:43:14.555Z,3.11
2022-12-13T01:43:46.527Z,2.61
2022-12-13T01:44:17.919Z,2.41
2022-12-13T01:44:49.311Z,2.75
2022-12-13T01:45:20.696Z,2.39
2022-12-13T01:45:52.146Z,2.80
2022-12-13T01:46:23.618Z,2.73
2022-12-13T01:46:55.083Z,2.69
2022-12-13T01:47:26.480Z,2.88
2022-12-13T01:47:57.871Z,2.73
2022-12-13T01:48:29.477Z,2.43
2022-12-13T01:49:00.878Z,3.04
2022-12-13T01:49:32.263Z,2.89
2022-12-13T01:50:03.672Z,2.57
2022-12-13T01:50:35.059Z,2.80
2022-12-13T01:51:06.451Z,2.58
2022-12-13T01:51:37.841Z,2.14
2022-12-13T01:52:09.230Z,3.16
2022-12-13T01:52:40.646Z,2.79
2022-12-13T01:53:12.043Z,2.85
2022-12-13T01:53:43.430Z,2.75
2022-12-13T01:54:21.310Z,2.74
2022-12-13T01:54:53.363Z,2.92
2022-12-13T01:55:24.751Z,2.66
2022-12-13T01:55:56.155Z,2.52
2022-12-13T01:56:27.554Z,2.74
2022-12-13T01:57:00.734Z,2.88
2022-12-13T01:57:32.483Z,2.72
2022-12-13T01:58:03.877Z,2.58
2022-12-13T01:58:35.263Z,2.63
2022-12-13T01:59:06.690Z,2.46
2022-12-13T01:59:38.082Z,2.73
2022-12-13T02:00:09.476Z,3.06
2022-12-13T02:00:41.109Z,2.93
2022-12-13T02:01:12.542Z,2.36
2022-12-13T02:01:44.000Z,2.30
2022-12-13T02:02:15.450Z,2.56
2022-12-13T02:02:46.840Z,2.90
2022-12-13T02:03:20.793Z,2.10
2022-12-13T02:03:53.246Z,2.53
2022-12-13T02:04:24.814Z,2.41
2022-12-13T02:04:56.244Z,2.86
2022-12-13T02:05:27.764Z,2.51
2022-12-13T02:06:00.531Z,2.90
2022-12-13T02:06:32.131Z,2.71
2022-12-13T02:07:03.521Z,2.59
2022-12-13T02:07:34.931Z,2.69
2022-12-13T02:08:06.359Z,2.30
2022-12-13T02:08:37.857Z,2.24
2022-12-13T02:09:09.266Z,2.18
2022-12-13T02:09:40.696Z,2.46
2022-12-13T02:10:12.091Z,1.94
2022-12-13T02:10:43.476Z,2.29
2022-12-13T02:11:14.882Z,1.92
2022-12-13T02:11:46.281Z,2.50
2022-12-13T02:12:17.682Z,2.40
2022-12-13T02:12:49.071Z,2.31
2022-12-13T02:13:20.460Z,2.32
2022-12-13T02:13:51.860Z,2.63
2022-12-13T02:14:23.268Z,2.24
2022-12-13T02:14:54.722Z,2.68
2022-12-13T02:15:32.032Z,2.23
2022-12-13T02:16:03.468Z,2.62
2022-12-13T02:16:34.999Z,2.40
2022-12-13T02:17:06.422Z,2.03
2022-12-13T02:17:43.837Z,2.28
2022-12-13T02:18:16.974Z,2.25
2022-12-13T02:18:48.377Z,2.23
2022-12-13T02:19:19.766Z,2.14
2022-12-13T02:19:51.165Z,2.67
2022-12-13T02:20:22.705Z,2.80
2022-12-13T02:20:54.086Z,2.28
2022-12-13T02:21:25.473Z,1.91
2022-12-13T02:21:56.878Z,2.35
2022-12-13T02:22:28.274Z,2.33
2022-12-13T02:22:59.686Z,2.37
2022-12-13T02:23:31.075Z,2.44
2022-12-13T02:24:09.148Z,2.47
2022-12-13T02:24:40.788Z,2.22
2022-12-13T02:25:12.311Z,2.81
2022-12-13T02:25:44.023Z,2.55
2022-12-13T02:26:15.410Z,2.28
2022-12-13T02:26:46.881Z,2.42
2022-12-13T02:27:18.365Z,2.49
2022-12-13T02:28:02.317Z,2.05
2022-12-13T02:28:33.716Z,2.15
2022-12-13T02:29:05.107Z,2.23
2022-12-13T02:29:36.491Z,1.95
2022-12-13T02:30:07.891Z,2.18
2022-12-13T02:30:39.361Z,2.00
2022-12-13T02:31:10.853Z,2.60
2022-12-13T02:31:42.295Z,2.05
2022-12-13T02:32:13.710Z,2.04
2022-12-13T02:32:45.119Z,2.24
2022-12-13T02:33:21.583Z,2.77
2022-12-13T02:33:53.363Z,2.27
2022-12-13T02:34:24.759Z,2.38
2022-12-13T02:34:56.150Z,1.94
2022-12-13T02:35:27.548Z,1.83
2022-12-13T02:35:59.035Z,1.90
2022-12-13T02:36:36.651Z,2.05
2022-12-13T02:37:18.131Z,2.01
2022-12-13T02:37:49.989Z,1.72
2022-12-13T02:38:24.584Z,2.16
2022-12-13T02:38:56.278Z,2.15
2022-12-13T02:39:30.470Z,1.89
2022-12-13T02:40:02.371Z,1.60
2022-12-13T02:40:33.763Z,2.26
2022-12-13T02:41:05.224Z,2.25
2022-12-13T02:41:36.605Z,2.24
2022-12-13T02:42:07.990Z,2.10
2022-12-13T02:42:53.113Z,2.50
2022-12-13T02:43:24.526Z,1.97
2022-12-13T02:44:05.041Z,2.03
2022-12-13T02:44:54.005Z,2.25
2022-12-13T02:45:25.596Z,2.02
2022-12-13T02:45:57.274Z,1.87
2022-12-13T02:46:28.834Z,2.06
2022-12-13T02:47:00.265Z,1.93
2022-12-13T02:47:31.650Z,2.14
2022-12-13T02:48:03.050Z,1.85
2022-12-13T02:48:34.459Z,2.21
2022-12-13T02:49:07.774Z,1.92
2022-12-13T02:49:39.164Z,2.07
2022-12-13T02:50:10.566Z,2.15
2022-12-13T02:50:41.953Z,1.99
2022-12-13T02:51:13.363Z,2.13
2022-12-13T02:51:44.785Z,2.00
2022-12-13T02:52:22.366Z,2.18
2022-12-13T02:52:54.168Z,2.12
2022-12-13T02:53:25.567Z,1.68
2022-12-13T02:53:56.950Z,1.53
2022-12-13T02:54:28.359Z,1.91
2022-12-13T02:54:59.762Z,1.70
2022-12-13T02:55:31.155Z,1.86
2022-12-13T02:56:02.548Z,2.07
2022-12-13T02:56:34.184Z,2.46
2022-12-13T02:57:05.572Z,2.15
2022-12-13T02:57:36.962Z,1.84
2022-12-13T02:58:08.366Z,1.69
2022-12-13T02:58:39.756Z,2.29
2022-12-13T02:59:11.163Z,1.91
2022-12-13T02:59:42.571Z,2.18
2022-12-13T03:00:13.968Z,2.32
2022-12-13T03:00:45.376Z,2.10
2022-12-13T03:01:28.508Z,1.95
2022-12-13T03:02:09.532Z,1.93
2022-12-13T03:02:42.051Z,2.07
2022-12-13T03:03:15.177Z,2.13
2022-12-13T03:03:46.708Z,1.96
2022-12-13T03:04:20.094Z,2.05
2022-12-13T03:04:54.930Z,2.08
2022-12-13T03:05:26.319Z,2.03
2022-12-13T03:05:57.721Z,1.96
2022-12-13T03:06:34.194Z,1.63
2022-12-13T03:07:06.101Z,1.82
2022-12-13T03:07:37.495Z,1.94
2022-12-13T03:08:08.977Z,2.02
2022-12-13T03:08:40.400Z,2.11
2022-12-13T03:09:11.813Z,2.15
2022-12-13T03:09:43.226Z,1.70
2022-12-13T03:10:14.618Z,1.72
2022-12-13T03:10:46.017Z,2.01
2022-12-13T03:11:17.410Z,2.11
2022-12-13T03:11:48.798Z,1.93
2022-12-13T03:12:20.273Z,2.21
2022-12-13T03:12:51.732Z,2.32
2022-12-13T03:13:23.130Z,2.12
2022-12-13T03:13:54.549Z,1.82
2022-12-13T03:14:29.349Z,1.87
2022-12-13T03:15:02.882Z,1.67
2022-12-13T03:15:34.280Z,2.01
2022-12-13T03:16:05.722Z,2.12
2022-12-13T03:16:37.122Z,2.21
2022-12-13T03:17:08.511Z,1.93
2022-12-13T03:17:39.899Z,1.87
2022-12-13T03:18:11.300Z,1.81
2022-12-13T03:18:42.692Z,2.12
2022-12-13T03:19:14.086Z,1.72
2022-12-13T03:19:45.475Z,1.61
2022-12-13T03:20:22.678Z,1.84
2022-12-13T03:20:54.952Z,1.81
2022-12-13T03:21:26.349Z,1.71
2022-12-13T03:21:57.835Z,1.75
2022-12-13T03:22:29.322Z,2.01
2022-12-13T03:23:00.713Z,1.71
2022-12-13T03:23:32.104Z,1.91
2022-12-13T03:24:03.487Z,1.71
2022-12-13T03:24:34.903Z,1.54
2022-12-13T03:25:06.281Z,1.79
2022-12-13T03:25:37.687Z,1.70
2022-12-13T03:26:09.101Z,2.03
2022-12-13T03:26:40.506Z,1.78
2022-12-13T03:27:11.899Z,1.68
2022-12-13T03:27:43.383Z,1.71
2022-12-13T03:28:14.770Z,1.45
2022-12-13T03:28:46.159Z,1.70
2022-12-13T03:29:23.825Z,1.82
2022-12-13T03:29:56.272Z,1.37
2022-12-13T03:30:27.675Z,1.75
2022-12-13T03:30:59.132Z,1.83
2022-12-13T03:31:30.602Z,1.48
2022-12-13T03:32:02.062Z,1.69
2022-12-13T03:32:33.442Z,1.47
2022-12-13T03:33:04.919Z,1.97
2022-12-13T03:33:36.309Z,1.52
2022-12-13T03:34:07.714Z,1.39
2022-12-13T03:34:43.242Z,1.75
2022-12-13T03:35:21.963Z,1.57
2022-12-13T03:35:53.950Z,1.25
2022-12-13T03:36:25.340Z,1.74
2022-12-13T03:36:56.744Z,1.95
2022-12-13T03:37:32.357Z,1.49
2022-12-13T03:38:03.743Z,1.51
2022-12-13T03:38:35.193Z,1.68
2022-12-13T03:39:06.588Z,1.70
2022-12-13T03:39:38.020Z,1.40
2022-12-13T03:40:09.440Z,1.50
2022-12-13T03:40:40.832Z,1.57
2022-12-13T03:41:12.226Z,1.35
2022-12-13T03:41:43.625Z,1.49
2022-12-13T03:42:15.019Z,1.72
2022-12-13T03:42:46.411Z,1.68
2022-12-13T03:43:22.179Z,1.85
2022-12-13T03:43:54.337Z,1.66
2022-12-13T03:44:25.724Z,1.28
2022-12-13T03:45:03.154Z,1.91
2022-12-13T03:45:34.539Z,1.68
2022-12-13T03:46:05.960Z,1.62
2022-12-13T03:46:37.512Z,1.41
2022-12-13T03:47:08.951Z,1.54
2022-12-13T03:47:40.334Z,1.31
2022-12-13T03:48:11.746Z,1.53
2022-12-13T03:48:43.134Z,1.45
2022-12-13T03:49:17.333Z,1.22
2022-12-13T03:49:54.052Z,1.69
2022-12-13T03:50:27.510Z,1.62
2022-12-13T03:50:59.079Z,2.03
2022-12-13T03:51:30.471Z,1.71
2022-12-13T03:52:01.866Z,1.52
2022-12-13T03:52:33.278Z,1.56
2022-12-13T03:53:04.707Z,1.87
2022-12-13T03:53:36.099Z,1.43
2022-12-13T03:54:07.514Z,1.59
2022-12-13T03:54:38.939Z,1.83
2022-12-13T03:55:16.852Z,1.74
2022-12-13T03:55:48.419Z,1.57
2022-12-13T03:56:19.807Z,1.55
2022-12-13T03:56:51.217Z,1.71
2022-12-13T03:57:22.631Z,1.53
2022-12-13T03:57:54.014Z,1.48
2022-12-13T03:58:25.398Z,1.42
2022-12-13T03:58:56.855Z,1.50
2022-12-13T03:59:28.238Z,1.82
2022-12-13T03:59:59.676Z,1.49
2022-12-13T04:00:31.059Z,1.65
2022-12-13T04:01:02.452Z,1.59
2022-12-13T04:01:33.903Z,1.48
2022-12-13T04:02:05.331Z,1.67
2022-12-13T04:02:36.828Z,1.25
2022-12-13T04:03:08.344Z,1.45
2022-12-13T04:03:39.782Z,1.61
2022-12-13T04:04:11.171Z,1.83
2022-12-13T04:04:42.556Z,1.59
2022-12-13T04:05:14.344Z,1.18
2022-12-13T04:05:45.989Z,1.51
2022-12-13T04:06:22.165Z,1.89
2022-12-13T04:06:55.443Z,1.46
2022-12-13T04:07:26.832Z,1.35
2022-12-13T04:08:05.896Z,1.78
2022-12-13T04:08:53.571Z,1.44
2022-12-13T04:09:24.991Z,1.73
2022-12-13T04:09:56.384Z,1.82
2022-12-13T04:10:27.902Z,1.23
2022-12-13T04:10:59.307Z,1.43
2022-12-13T04:11:30.699Z,1.51
2022-12-13T04:12:02.097Z,1.23
2022-12-13T04:12:33.478Z,1.37
2022-12-13T04:13:04.920Z,1.44
2022-12-13T04:13:36.316Z,1.48
2022-12-13T04:14:07.726Z,1.46
2022-12-13T04:14:39.134Z,1.56
2022-12-13T04:15:10.531Z,1.85
2022-12-13T04:15:42.043Z,1.56
2022-12-13T04:16:13.499Z,1.60
2022-12-13T04:16:44.922Z,1.68
2022-12-13T04:17:16.328Z,1.35
2022-12-13T04:17:51.134Z,1.61
2022-12-13T04:18:22.731Z,1.34
2022-12-13T04:18:54.113Z,1.44
2022-12-13T04:19:25.516Z,1.58
2022-12-13T04:19:56.920Z,1.56
2022-12-13T04:20:28.311Z,1.05
2022-12-13T04:20:59.749Z,1.65
2022-12-13T04:21:31.138Z,1.33
2022-12-13T04:22:02.519Z,1.27
2022-12-13T04:22:33.922Z,1.25
2022-12-13T04:23:09.969Z,1.52
2022-12-13T04:23:41.994Z,1.19
2022-12-13T04:24:13.387Z,1.84
2022-12-13T04:24:44.794Z,1.35
2022-12-13T04:25:16.468Z,1.50
2022-12-13T04:25:47.975Z,1.54
2022-12-13T04:26:19.474Z,1.74
2022-12-13T04:26:50.960Z,1.54
2022-12-13T04:27:22.355Z,1.78
2022-12-13T04:27:53.774Z,1.38
2022-12-13T04:28:25.192Z,1.58
2022-12-13T04:28:56.601Z,1.47
2022-12-13T04:29:27.988Z,1.24
2022-12-13T04:30:06.169Z,1.53
2022-12-13T04:30:37.583Z,1.85
2022-12-13T04:31:09.013Z,1.54
2022-12-13T04:31:40.581Z,1.33
2022-12-13T04:32:26.114Z,1.27
2022-12-13T04:32:58.686Z,1.63
2022-12-13T04:33:30.072Z,1.61
2022-12-13T04:34:01.463Z,1.37
2022-12-13T04:34:37.331Z,1.64
2022-12-13T04:35:09.055Z,1.55
2022-12-13T04:35:40.457Z,1.35
2022-12-13T04:36:11.850Z,1.33
2022-12-13T04:36:43.290Z,1.18
2022-12-13T04:37:14.685Z,1.32
2022-12-13T04:37:46.070Z,1.33
2022-12-13T04:38:17.464Z,1.38
2022-12-13T04:38:48.851Z,1.43
2022-12-13T04:39:22.737Z,1.17
2022-12-13T04:39:54.283Z,1.38
2022-12-13T04:40:32.460Z,1.54
2022-12-13T04:41:03.869Z,1.31
2022-12-13T04:41:35.259Z,1.47
2022-12-13T04:42:06.769Z,1.45
2022-12-13T04:42:38.154Z,1.04
2022-12-13T04:43:09.567Z,1.38
2022-12-13T04:43:40.974Z,1.12
2022-12-13T04:44:27.952Z,1.34
2022-12-13T04:45:01.215Z,1.55
2022-12-13T04:45:32.674Z,1.29
2022-12-13T04:46:04.182Z,1.62
2022-12-13T04:46:35.635Z,1.28
2022-12-13T04:47:07.103Z,1.21
2022-12-13T04:47:38.569Z,1.22
2022-12-13T04:48:09.959Z,1.26
2022-12-13T04:48:41.349Z,1.19
2022-12-13T04:49:12.739Z,1.32
2022-12-13T04:49:44.130Z,1.28
2022-12-13T04:50:15.521Z,1.38
2022-12-13T04:50:46.907Z,1.49
2022-12-13T04:51:18.300Z,1.39
2022-12-13T04:51:49.688Z,1.38
2022-12-13T04:52:22.160Z,1.00
2022-12-13T04:52:54.259Z,1.36
2022-12-13T04:53:25.642Z,0.96
2022-12-13T04:53:57.027Z,1.40
2022-12-13T04:54:48.405Z,1.12
2022-12-13T04:55:27.408Z,1.05
2022-12-13T04:55:58.796Z,0.98
2022-12-13T04:56:30.190Z,1.44
2022-12-13T04:57:01.590Z,1.52
2022-12-13T04:57:33.196Z,1.43
2022-12-13T04:58:04.734Z,1.44
2022-12-13T04:58:36.158Z,1.39
2022-12-13T04:59:07.547Z,1.41
2022-12-13T04:59:38.960Z,1.29
2022-12-13T05:00:10.388Z,1.16
2022-12-13T05:00:41.775Z,1.21
2022-12-13T05:01:15.969Z,1.47
2022-12-13T05:01:47.398Z,1.52
2022-12-13T05:02:23.815Z,1.48
2022-12-13T05:02:55.758Z,1.14
2022-12-13T05:03:27.274Z,1.10
2022-12-13T05:03:58.659Z,1.29
2022-12-13T05:04:32.987Z,1.08
2022-12-13T05:05:04.710Z,1.20
2022-12-13T05:05:36.100Z,1.27
2022-12-13T05:06:07.487Z,0.99
2022-12-13T05:06:58.755Z,1.06
2022-12-13T05:07:30.143Z,1.23
2022-12-13T05:08:01.567Z,1.47
2022-12-13T05:08:33.088Z,1.30
2022-12-13T05:09:04.519Z,0.98
2022-12-13T05:09:42.939Z,1.34
2022-12-13T05:10:33.943Z,1.27
2022-12-13T05:11:05.729Z,1.26
2022-12-13T05:11:37.123Z,1.47
2022-12-13T05:12:21.875Z,1.30
2022-12-13T05:12:54.346Z,1.19
2022-12-13T05:13:25.742Z,0.99
2022-12-13T05:13:57.250Z,1.34
2022-12-13T05:14:28.638Z,1.40
2022-12-13T05:15:00.031Z,1.02
2022-12-13T05:15:31.442Z,1.31
2022-12-13T05:16:02.825Z,1.43
2022-12-13T05:16:34.264Z,1.37
2022-12-13T05:17:05.666Z,1.31
2022-12-13T05:17:37.066Z,1.10
2022-12-13T05:18:09.786Z,1.19
2022-12-13T05:18:42.200Z,1.34
2022-12-13T05:19:13.734Z,1.17
2022-12-13T05:19:45.117Z,1.29
2022-12-13T05:20:16.530Z,1.26
2022-12-13T05:20:47.916Z,0.84
2022-12-13T05:21:19.308Z,1.02
2022-12-13T05:21:50.689Z,1.31
2022-12-13T05:22:22.099Z,1.18
2022-12-13T05:22:53.512Z,1.00
2022-12-13T05:23:24.895Z,1.18
2022-12-13T05:23:56.335Z,1.00
2022-12-13T05:24:27.837Z,0.98
2022-12-13T05:24:59.228Z,1.33
2022-12-13T05:25:30.635Z,1.15
2022-12-13T05:26:02.031Z,1.49
2022-12-13T05:26:33.423Z,1.18
2022-12-13T05:27:26.277Z,1.21
2022-12-13T05:27:57.072Z,0.94
2022-12-13T05:28:29.100Z,1.38
2022-12-13T05:29:00.568Z,1.34
2022-12-13T05:29:32.039Z,1.25
2022-12-13T05:30:05.109Z,1.43
2022-12-13T05:30:36.851Z,1.12
2022-12-13T05:31:23.160Z,1.35
2022-12-13T05:31:55.177Z,1.30
2022-12-13T05:32:26.583Z,1.18
2022-12-13T05:32:57.971Z,1.31
2022-12-13T05:33:29.363Z,1.04
2022-12-13T05:34:01.490Z,1.47
2022-12-13T05:34:33.174Z,1.11
2022-12-13T05:35:04.569Z,0.71
2022-12-13T05:35:35.954Z,1.06
2022-12-13T05:36:07.415Z,1.37
2022-12-13T05:36:38.809Z,1.20
2022-12-13T05:37:10.201Z,0.85
2022-12-13T05:37:41.601Z,1.28
2022-12-13T05:38:13.008Z,1.03
2022-12-13T05:38:44.396Z,1.03
2022-12-13T05:39:28.069Z,1.20
2022-12-13T05:40:00.939Z,1.42
2022-12-13T05:40:32.351Z,1.42
2022-12-13T05:41:03.749Z,1.00
2022-12-13T05:41:35.139Z,0.93
2022-12-13T05:42:06.531Z,1.16
2022-12-13T05:42:37.923Z,1.13
2022-12-13T05:43:22.256Z,1.15
2022-12-13T05:43:53.874Z,1.29
2022-12-13T05:44:25.273Z,1.01
2022-12-13T05:44:56.666Z,1.51
2022-12-13T05:45:28.275Z,1.06
2022-12-13T05:45:59.713Z,0.78
2022-12-13T05:46:31.141Z,1.13
2022-12-13T05:47:02.999Z,1.00
2022-12-13T05:47:34.518Z,1.42
2022-12-13T05:48:05.899Z,1.17
2022-12-13T05:48:37.312Z,1.04
2022-12-13T05:49:08.719Z,1.14
2022-12-13T05:49:40.109Z,1.18
2022-12-13T05:50:11.524Z,1.10
2022-12-13T05:50:43.027Z,1.34
2022-12-13T05:51:14.416Z,1.12
2022-12-13T05:51:45.855Z,0.87
2022-12-13T05:52:17.244Z,0.94
2022-12-13T05:52:48.639Z,1.09
2022-12-13T05:53:30.315Z,1.01
2022-12-13T05:54:02.575Z,1.04
2022-12-13T05:54:33.963Z,1.27
2022-12-13T05:55:05.355Z,1.12
2022-12-13T05:55:36.746Z,0.92
2022-12-13T05:56:08.258Z,1.01
2022-12-13T05:56:39.669Z,1.21
2022-12-13T05:57:11.076Z,0.92
2022-12-13T05:57:42.483Z,1.27
2022-12-13T05:58:23.070Z,1.29
2022-12-13T05:58:54.863Z,0.98
2022-12-13T05:59:26.263Z,1.36
2022-12-13T05:59:57.690Z,1.06
2022-12-13T06:00:30.856Z,1.39
2022-12-13T06:01:02.531Z,1.28
2022-12-13T06:01:33.978Z,1.18
2022-12-13T06:02:05.473Z,1.02
2022-12-13T06:02:37.103Z,0.89
2022-12-13T06:03:08.738Z,0.99
2022-12-13T06:03:40.342Z,1.45
2022-12-13T06:04:11.838Z,1.28
2022-12-13T06:04:43.226Z,0.99
2022-12-13T06:05:14.936Z,1.14
2022-12-13T06:05:46.478Z,0.66
2022-12-13T06:06:17.889Z,1.03
2022-12-13T06:06:49.330Z,0.89
2022-12-13T06:07:22.845Z,0.87
2022-12-13T06:07:57.144Z,1.14
2022-12-13T06:08:29.376Z,0.91
2022-12-13T06:09:00.823Z,1.11
2022-12-13T06:09:32.235Z,1.01
2022-12-13T06:10:11.418Z,1.19
2022-12-13T06:10:42.801Z,1.31
2022-12-13T06:11:31.251Z,1.22
2022-12-13T06:12:03.744Z,0.89
2022-12-13T06:12:55.108Z,1.11
2022-12-13T06:13:32.705Z,1.02
2022-12-13T06:14:04.115Z,1.07
2022-12-13T06:14:53.346Z,1.12
2022-12-13T06:15:34.544Z,0.96
2022-12-13T06:16:06.471Z,1.03
2022-12-13T06:16:53.171Z,1.16
2022-12-13T06:17:24.656Z,0.99
2022-12-13T06:17:56.047Z,1.30
2022-12-13T06:18:27.448Z,0.91
2022-12-13T06:19:04.220Z,1.12
2022-12-13T06:19:36.078Z,1.20
2022-12-13T06:20:23.372Z,1.26
2022-12-13T06:20:55.955Z,0.89
2022-12-13T06:21:27.341Z,1.00
2022-12-13T06:21:58.740Z,0.78
2022-12-13T06:22:30.222Z,0.98
2022-12-13T06:23:01.631Z,1.05
2022-12-13T06:23:33.024Z,0.82
2022-12-13T06:24:04.426Z,1.14
2022-12-13T06:24:35.821Z,1.15
2022-12-13T06:25:07.210Z,1.05
2022-12-13T06:25:58.590Z,1.08
2022-12-13T06:26:30.031Z,1.01
2022-12-13T06:27:01.427Z,1.01
2022-12-13T06:27:32.887Z,0.72
2022-12-13T06:28:04.294Z,1.05
2022-12-13T06:28:35.688Z,1.07
2022-12-13T06:29:07.082Z,0.97
2022-12-13T06:29:38.766Z,1.23
2022-12-13T06:30:10.385Z,0.81
2022-12-13T06:30:42.660Z,1.22
2022-12-13T06:31:14.357Z,0.91
2022-12-13T06:31:45.844Z,1.15
2022-12-13T06:32:17.239Z,1.00
2022-12-13T06:32:48.710Z,1.11
2022-12-13T06:33:23.437Z,0.92
2022-12-13T06:33:55.036Z,0.96
2022-12-13T06:34:26.444Z,1.06
2022-12-13T06:34:57.838Z,1.04
2022-12-13T06:35:30.151Z,1.20
2022-12-13T06:36:02.891Z,0.98
2022-12-13T06:36:34.286Z,0.94
2022-12-13T06:37:05.739Z,1.02
2022-12-13T06:37:37.143Z,0.92
2022-12-13T06:38:12.256Z,1.07
2022-12-13T06:38:43.876Z,1.16
2022-12-13T06:39:15.343Z,0.94
2022-12-13T06:39:46.731Z,1.01
2022-12-13T06:40:22.936Z,1.00
2022-12-13T06:40:54.664Z,0.85
2022-12-13T06:41:31.900Z,1.04
2022-12-13T06:42:03.544Z,1.14
2022-12-13T06:42:34.936Z,1.07
2022-12-13T06:43:06.341Z,1.18
2022-12-13T06:43:37.816Z,1.16
2022-12-13T06:44:09.196Z,1.01
2022-12-13T06:44:40.584Z,0.90
2022-12-13T06:45:11.981Z,0.96
2022-12-13T06:45:43.396Z,1.09
2022-12-13T06:46:14.884Z,0.69
2022-12-13T06:46:46.307Z,0.65
2022-12-13T06:47:32.225Z,0.87
2022-12-13T06:48:03.956Z,1.12
2022-12-13T06:48:35.362Z,1.03
2022-12-13T06:49:06.840Z,1.17
2022-12-13T06:49:38.227Z,1.17
2022-12-13T06:50:09.613Z,0.97
2022-12-13T06:50:40.999Z,0.81
2022-12-13T06:51:12.394Z,1.00
2022-12-13T06:51:43.779Z,1.10
2022-12-13T06:52:15.164Z,0.75
2022-12-13T06:52:46.560Z,0.97
2022-12-13T06:53:17.960Z,0.78
2022-12-13T06:53:49.366Z,0.78
2022-12-13T06:54:22.109Z,0.99
2022-12-13T06:54:59.673Z,1.23
2022-12-13T06:55:31.303Z,0.92
2022-12-13T06:56:02.696Z,0.66
2022-12-13T06:56:34.080Z,0.89
2022-12-13T06:57:05.471Z,1.04
2022-12-13T06:57:36.855Z,1.04
2022-12-13T06:58:08.247Z,0.79
2022-12-13T06:58:39.657Z,0.98
2022-12-13T06:59:11.095Z,0.89
2022-12-13T06:59:42.843Z,0.95
2022-12-13T07:00:14.439Z,0.94
2022-12-13T07:00:53.687Z,0.99
2022-12-13T07:01:25.264Z,0.93
2022-12-13T07:02:03.636Z,1.03
2022-12-13T07:02:35.633Z,1.01
2022-12-13T07:03:07.197Z,1.20
2022-12-13T07:03:38.624Z,0.96
2022-12-13T07:04:29.901Z,0.71
2022-12-13T07:05:01.515Z,1.27
2022-12-13T07:05:32.938Z,0.97
2022-12-13T07:06:04.327Z,1.25
2022-12-13T07:06:35.723Z,1.33
2022-12-13T07:07:07.128Z,0.90
2022-12-13T07:07:38.526Z,1.05
2022-12-13T07:08:09.996Z,1.23
2022-12-13T07:08:41.450Z,0.92
2022-12-13T07:09:12.848Z,0.98
2022-12-13T07:09:44.768Z,0.88
2022-12-13T07:10:21.789Z,1.37
2022-12-13T07:10:54.616Z,0.86
2022-12-13T07:11:26.097Z,0.87
2022-12-13T07:11:57.510Z,0.94